• Join FlightAware (Why Join?)
  • Login
  • US Flag 
12:21AM EDT


 

Airport Tracker/Info


-or-


 

Live Flight TrackerFlight Track Log ✈ SLI2201 ✈ 10-Jul-2013 ✈ MMMY / MTY - MMCU / CUU

Flight Track Log - Related Links

Times and Time Zones

All times are in EDT time to prevent confusion due to time zone crossing. See the SLI2201 flight status page for this flight to view local times or setup timezone preferences in your user account.

Time Position Orientation Groundspeed Altitude Reporting Facility
EDT Latitude Longitude Course Direction KTS MPH feet Rate Location/Type
11:20PM 25.9231 -100.3789 301° West  Level Estimated
11:21PM 25.9592 -100.4470 301° West  Level Estimated
11:22PM 25.9952 -100.5152 300° West  Level Estimated
11:23PM 26.0312 -100.5834 300° West  Level Estimated
11:24PM 26.0672 -100.6516 300° West  Level Estimated
11:25PM 26.1032 -100.7199 300° West  Level Estimated
11:26PM 26.1391 -100.7882 300° West  Level Estimated
11:27PM 26.1750 -100.8566 300° West  Level Estimated
11:28PM 26.2108 -100.9249 300° West  Level Estimated
11:29PM 26.2467 -100.9934 300° West  Level Estimated
11:30PM 26.2824 -101.0619 300° West  Level Estimated
11:31PM 26.3182 -101.1304 300° West  Level Estimated
11:32PM 26.3539 -101.1990 300° West  Level Estimated
11:33PM 26.3896 -101.2676 300° West  Level Estimated
11:34PM 26.4253 -101.3363 300° West  Level Estimated
11:35PM 26.4609 -101.4050 300° West  Level Estimated
11:36PM 26.4965 -101.4737 300° West  Level Estimated
11:37PM 26.5320 -101.5425 300° West  Level Estimated
11:38PM 26.5676 -101.6113 300° West  Level Estimated
11:39PM 26.6031 -101.6802 300° West  Level Estimated
11:40PM 26.6385 -101.7491 300° West  Level Estimated
11:41PM 26.6739 -101.8181 300° West  Level Estimated
11:42PM 26.7093 -101.8871 300° West  Level Estimated
11:43PM 26.7447 -101.9561 300° West  Level Estimated
11:44PM 26.7800 -102.0252 300° West  Level Estimated
11:45PM 26.8153 -102.0943 300° West  Level Estimated
11:46PM 26.8506 -102.1635 300° West  Level Estimated
11:47PM 26.8858 -102.2327 300° West  Level Estimated
11:48PM 26.9210 -102.3020 300° West  Level Estimated
11:49PM 26.9561 -102.3713 300° West  Level Estimated
11:50PM 26.9913 -102.4406 300° West  Level Estimated
11:51PM 27.0264 -102.5100 300° West  Level Estimated
11:52PM 27.0614 -102.5794 300° West  Level Estimated
11:53PM 27.0964 -102.6489 300° West  Level Estimated
11:54PM 27.1314 -102.7184 300° West  Level Estimated
11:55PM 27.1664 -102.7880 299° West  Level Estimated
11:56PM 27.2013 -102.8576 299° West  Level Estimated
11:57PM 27.2362 -102.9272 299° West  Level Estimated
11:58PM 27.2710 -102.9969 299° West  Level Estimated
11:59PM 27.3058 -103.0666 299° West  Level Estimated
12:00AM 27.3406 -103.1364 299° West  Level Estimated
12:01AM 27.3754 -103.2062 299° West  Level Estimated
12:02AM 27.4101 -103.2761 299° West  Level Estimated
12:03AM 27.4448 -103.3460 299° West  Level Estimated
12:04AM 27.4794 -103.4160 299° West  Level Estimated
12:05AM 27.5140 -103.4860 299° West  Level Estimated
12:06AM 27.5486 -103.5560 299° West  Level Estimated
12:07AM 27.5831 -103.6261 299° West  Level Estimated
12:08AM 27.6176 -103.6962 299° West  Level Estimated
12:09AM 27.6521 -103.7664 299° West  Level Estimated
12:10AM 27.6865 -103.8366 299° West  Level Estimated
12:11AM 27.7209 -103.9069 299° West  Level Estimated
12:12AM 27.7553 -103.9772 299° West  Level Estimated
12:13AM 27.7896 -104.0475 299° West  Level Estimated
12:14AM 27.8239 -104.1179 299° West  Level Estimated
12:15AM 27.8581 -104.1884 299° West  Level Estimated
12:16AM 27.8923 -104.2589 299° West  Level Estimated
12:17AM 27.9265 -104.3294 299° West  Level Estimated
12:18AM 27.9607 -104.4000 299° West  Level Estimated
12:19AM 27.9948 -104.4706 299° West  Level Estimated
12:20AM 28.0289 -104.5413 299° West  Level Estimated
12:21AM 28.0629 -104.6120 299° West  Level Estimated
12:22AM 28.0969 -104.6827 299° West  Level Estimated
12:23AM 28.1308 -104.7535 299° West  Level Estimated
12:24AM 28.1648 -104.8243 299° West  Level Estimated
12:25AM 28.1987 -104.8952 298° West  Level Estimated
12:26AM 28.2325 -104.9662 298° West  Level Estimated
12:27AM 28.2663 -105.0371 298° West  Level Estimated
12:28AM 28.3001 -105.1082 298° West  Level Estimated
12:29AM 28.3339 -105.1792 298° West  Level Estimated
12:30AM 28.3676 -105.2504 298° West  Level Estimated
12:31AM 28.4012 -105.3215 298° West  Level Estimated
12:32AM 28.4349 -105.3927 298° West  Level Estimated
12:33AM 28.4685 -105.4640 298° West  Level Estimated
12:34AM 28.5020 -105.5352 298° West  Level Estimated
12:35AM 28.5355 -105.6066 298° West  Level Estimated
12:36AM 28.5690 -105.6780 298° West  Level Estimated
12:37AM 28.6025 -105.7494 298° West  Level Estimated
12:38AM 28.6359 -105.8209 298° West  Level Estimated
12:39AM 28.6693 -105.8924 298° West  Level Estimated
12:40AM 28.7026 -105.9640 298° West  Level Estimated
12:41AM 28.7029 -105.9646 298° West  Level Estimated
12:42AM 28.7029 -105.9646 152° Southeast  Level Estimated
12:43AM 28.7029 -105.9646 28° Northeast  Level Estimated
12:44AM 28.7029 -105.9646 152° Southeast  Level Estimated
12:45AM 28.7029 -105.9646 28° Northeast  Level Estimated
12:46AM 28.7029 -105.9646 152° Southeast  Level Estimated
12:47AM 28.7029 -105.9646 28° Northeast  Level Estimated
12:48AM 28.7029 -105.9646 152° Southeast  Level Estimated
12:49AM 28.7029 -105.9646 28° Northeast  Level Estimated
12:50AM 28.7029 -105.9646 152° Southeast  Level Estimated
12:51AM 28.7029 -105.9646 28° Northeast  Level Estimated
12:52AM 28.7029 -105.9646 152° Southeast  Level Estimated
12:53AM 28.7029 -105.9646 28° Northeast  Level Estimated
12:54AM 28.7029 -105.9646 152° Southeast  Level Estimated
12:55AM 28.7029 -105.9646 28° Northeast  Level Estimated
12:56AM 28.7029 -105.9646 152° Southeast  Level Estimated